Terminal Aerodrome Forecast
Issued by NWS

Home | Current Version | Previous Version | Text Only | Print | Product List | Glossary On
Versions: 1 2 3 4 5 6 7 8 9 10 11 12 13 14 15
000
FTUS45 KFGZ 050530
TAFPRC
TAF
KPRC 050530Z 0506/0606 20005KT P6SM FEW110
     FM051900 26009KT P6SM SCT040 BKN060
     FM060300 20005KT P6SM FEW080=

USA.gov is the U.S. government's official web portal to all federal, state and local government web resources and services.